sensor_id;sensor_type;location;lat;lon;timestamp;P1;durP1;ratioP1;P2;durP2;ratioP2
67986;SDS011;54767;53.800;15.956;2023-02-07T00:01:40;17.30;;;8.80;;
67986;SDS011;54767;53.800;15.956;2023-02-07T00:04:08;19.80;;;9.00;;
67986;SDS011;54767;53.800;15.956;2023-02-07T00:06:39;20.70;;;9.40;;
67986;SDS011;54767;53.800;15.956;2023-02-07T00:09:18;18.10;;;8.80;;
67986;SDS011;54767;53.800;15.956;2023-02-07T00:11:47;17.40;;;8.80;;
67986;SDS011;54767;53.800;15.956;2023-02-07T00:14:19;20.30;;;9.40;;
67986;SDS011;54767;53.800;15.956;2023-02-07T00:16:50;19.20;;;9.10;;
67986;SDS011;54767;53.800;15.956;2023-02-07T00:19:18;20.90;;;9.60;;
67986;SDS011;54767;53.800;15.956;2023-02-07T00:21:46;17.40;;;8.40;;
67986;SDS011;54767;53.800;15.956;2023-02-07T00:24:15;18.60;;;8.90;;
67986;SDS011;54767;53.800;15.956;2023-02-07T00:26:43;15.80;;;8.90;;
67986;SDS011;54767;53.800;15.956;2023-02-07T00:29:14;17.00;;;8.90;;
67986;SDS011;54767;53.800;15.956;2023-02-07T00:31:42;16.80;;;8.60;;
67986;SDS011;54767;53.800;15.956;2023-02-07T00:34:10;16.90;;;9.40;;
67986;SDS011;54767;53.800;15.956;2023-02-07T00:36:39;16.20;;;8.40;;
67986;SDS011;54767;53.800;15.956;2023-02-07T00:39:12;14.40;;;7.60;;
67986;SDS011;54767;53.800;15.956;2023-02-07T00:41:43;14.90;;;7.70;;
67986;SDS011;54767;53.800;15.956;2023-02-07T00:44:12;16.20;;;7.70;;
67986;SDS011;54767;53.800;15.956;2023-02-07T00:46:40;15.60;;;7.30;;
67986;SDS011;54767;53.800;15.956;2023-02-07T00:49:09;13.50;;;7.60;;
67986;SDS011;54767;53.800;15.956;2023-02-07T00:51:38;12.10;;;6.30;;
67986;SDS011;54767;53.800;15.956;2023-02-07T00:54:10;14.10;;;6.70;;
67986;SDS011;54767;53.800;15.956;2023-02-07T00:56:38;14.70;;;6.60;;
67986;SDS011;54767;53.800;15.956;2023-02-07T00:59:07;11.30;;;5.90;;
67986;SDS011;54767;53.800;15.956;2023-02-07T01:01:36;11.30;;;5.40;;
67986;SDS011;54767;53.800;15.956;2023-02-07T01:04:04;12.70;;;6.30;;
67986;SDS011;54767;53.800;15.956;2023-02-07T01:06:32;11.70;;;5.10;;
67986;SDS011;54767;53.800;15.956;2023-02-07T01:09:04;10.10;;;5.10;;
67986;SDS011;54767;53.800;15.956;2023-02-07T01:14:29;12.00;;;4.90;;
67986;SDS011;54767;53.800;15.956;2023-02-07T01:16:57;8.90;;;4.60;;
67986;SDS011;54767;53.800;15.956;2023-02-07T01:19:25;8.70;;;4.40;;
67986;SDS011;54767;53.800;15.956;2023-02-07T01:21:54;8.80;;;3.90;;
67986;SDS011;54767;53.800;15.956;2023-02-07T01:24:26;7.50;;;4.10;;
67986;SDS011;54767;53.800;15.956;2023-02-07T01:26:54;6.80;;;3.70;;
67986;SDS011;54767;53.800;15.956;2023-02-07T01:29:22;6.90;;;3.70;;
67986;SDS011;54767;53.800;15.956;2023-02-07T01:31:50;7.30;;;3.80;;
67986;SDS011;54767;53.800;15.956;2023-02-07T01:34:20;8.10;;;3.90;;
67986;SDS011;54767;53.800;15.956;2023-02-07T01:36:48;6.80;;;3.50;;
67986;SDS011;54767;53.800;15.956;2023-02-07T01:39:17;6.70;;;3.50;;
67986;SDS011;54767;53.800;15.956;2023-02-07T01:41:46;6.00;;;3.30;;
67986;SDS011;54767;53.800;15.956;2023-02-07T01:46:49;7.80;;;3.50;;
67986;SDS011;54767;53.800;15.956;2023-02-07T01:49:20;6.80;;;3.20;;
67986;SDS011;54767;53.800;15.956;2023-02-07T01:51:55;5.00;;;3.50;;
67986;SDS011;54767;53.800;15.956;2023-02-07T01:54:26;6.00;;;3.40;;
67986;SDS011;54767;53.800;15.956;2023-02-07T01:57:04;7.60;;;3.10;;
67986;SDS011;54767;53.800;15.956;2023-02-07T01:59:34;6.30;;;3.30;;
67986;SDS011;54767;53.800;15.956;2023-02-07T02:02:05;6.70;;;3.20;;
67986;SDS011;54767;53.800;15.956;2023-02-07T02:04:34;4.80;;;3.50;;
67986;SDS011;54767;53.800;15.956;2023-02-07T02:07:03;7.10;;;3.20;;
67986;SDS011;54767;53.800;15.956;2023-02-07T02:09:33;6.30;;;3.40;;
67986;SDS011;54767;53.800;15.956;2023-02-07T02:12:14;7.40;;;3.30;;
67986;SDS011;54767;53.800;15.956;2023-02-07T02:23:42;6.80;;;3.30;;
67986;SDS011;54767;53.800;15.956;2023-02-07T02:37:48;5.20;;;3.20;;
67986;SDS011;54767;53.800;15.956;2023-02-07T02:43:51;3.20;;;2.50;;
67986;SDS011;54767;53.800;15.956;2023-02-07T02:46:27;7.00;;;3.00;;
67986;SDS011;54767;53.800;15.956;2023-02-07T02:48:58;6.70;;;3.30;;
67986;SDS011;54767;53.800;15.956;2023-02-07T02:51:29;5.10;;;3.00;;
67986;SDS011;54767;53.800;15.956;2023-02-07T02:53:59;6.90;;;3.50;;
67986;SDS011;54767;53.800;15.956;2023-02-07T02:59:38;5.40;;;3.00;;
67986;SDS011;54767;53.800;15.956;2023-02-07T03:02:16;4.40;;;3.20;;
67986;SDS011;54767;53.800;15.956;2023-02-07T03:07:53;6.50;;;3.30;;
67986;SDS011;54767;53.800;15.956;2023-02-07T03:13:32;6.30;;;3.60;;
67986;SDS011;54767;53.800;15.956;2023-02-07T03:16:30;5.80;;;3.50;;
67986;SDS011;54767;53.800;15.956;2023-02-07T03:19:12;6.50;;;3.60;;
67986;SDS011;54767;53.800;15.956;2023-02-07T03:21:53;7.70;;;3.60;;
67986;SDS011;54767;53.800;15.956;2023-02-07T03:24:31;6.40;;;3.40;;
67986;SDS011;54767;53.800;15.956;2023-02-07T03:27:03;8.30;;;3.60;;
67986;SDS011;54767;53.800;15.956;2023-02-07T03:29:36;6.40;;;3.90;;
67986;SDS011;54767;53.800;15.956;2023-02-07T03:32:08;7.50;;;3.50;;
67986;SDS011;54767;53.800;15.956;2023-02-07T03:39:48;5.90;;;3.40;;
67986;SDS011;54767;53.800;15.956;2023-02-07T03:42:27;6.70;;;3.30;;
67986;SDS011;54767;53.800;15.956;2023-02-07T03:44:59;7.30;;;3.50;;
67986;SDS011;54767;53.800;15.956;2023-02-07T03:47:29;6.90;;;3.60;;
67986;SDS011;54767;53.800;15.956;2023-02-07T03:49:57;8.50;;;3.80;;
67986;SDS011;54767;53.800;15.956;2023-02-07T03:52:26;9.40;;;3.80;;
67986;SDS011;54767;53.800;15.956;2023-02-07T03:54:54;7.90;;;3.90;;
67986;SDS011;54767;53.800;15.956;2023-02-07T03:57:22;7.10;;;3.70;;
67986;SDS011;54767;53.800;15.956;2023-02-07T03:59:51;10.30;;;4.60;;
67986;SDS011;54767;53.800;15.956;2023-02-07T04:02:19;9.30;;;4.10;;
67986;SDS011;54767;53.800;15.956;2023-02-07T04:04:48;10.00;;;4.40;;
67986;SDS011;54767;53.800;15.956;2023-02-07T04:07:16;9.60;;;4.60;;
67986;SDS011;54767;53.800;15.956;2023-02-07T04:09:45;9.70;;;5.30;;
67986;SDS011;54767;53.800;15.956;2023-02-07T04:12:13;9.80;;;4.80;;
67986;SDS011;54767;53.800;15.956;2023-02-07T04:14:42;10.00;;;4.80;;
67986;SDS011;54767;53.800;15.956;2023-02-07T04:17:10;10.30;;;5.30;;
67986;SDS011;54767;53.800;15.956;2023-02-07T04:19:38;10.40;;;5.50;;
67986;SDS011;54767;53.800;15.956;2023-02-07T04:22:06;10.50;;;5.60;;
67986;SDS011;54767;53.800;15.956;2023-02-07T04:24:37;10.30;;;5.30;;
67986;SDS011;54767;53.800;15.956;2023-02-07T04:27:06;11.80;;;5.80;;
67986;SDS011;54767;53.800;15.956;2023-02-07T04:29:34;12.30;;;5.70;;
67986;SDS011;54767;53.800;15.956;2023-02-07T04:32:02;13.00;;;6.20;;
67986;SDS011;54767;53.800;15.956;2023-02-07T04:34:31;14.40;;;6.00;;
67986;SDS011;54767;53.800;15.956;2023-02-07T04:36:59;11.60;;;6.00;;
67986;SDS011;54767;53.800;15.956;2023-02-07T04:39:28;12.90;;;6.30;;
67986;SDS011;54767;53.800;15.956;2023-02-07T04:41:56;10.80;;;5.80;;
67986;SDS011;54767;53.800;15.956;2023-02-07T04:44:25;13.60;;;6.40;;
67986;SDS011;54767;53.800;15.956;2023-02-07T04:46:54;11.90;;;6.20;;
67986;SDS011;54767;53.800;15.956;2023-02-07T04:49:22;13.20;;;5.30;;
67986;SDS011;54767;53.800;15.956;2023-02-07T04:51:51;12.90;;;6.00;;
67986;SDS011;54767;53.800;15.956;2023-02-07T04:54:19;12.70;;;5.50;;
67986;SDS011;54767;53.800;15.956;2023-02-07T04:56:47;11.30;;;5.90;;
67986;SDS011;54767;53.800;15.956;2023-02-07T04:59:16;13.70;;;6.00;;
67986;SDS011;54767;53.800;15.956;2023-02-07T05:01:44;13.00;;;6.40;;
67986;SDS011;54767;53.800;15.956;2023-02-07T05:04:12;11.00;;;5.80;;
67986;SDS011;54767;53.800;15.956;2023-02-07T05:06:41;13.00;;;6.10;;
67986;SDS011;54767;53.800;15.956;2023-02-07T05:09:10;15.40;;;6.20;;
67986;SDS011;54767;53.800;15.956;2023-02-07T05:11:38;11.70;;;5.60;;
67986;SDS011;54767;53.800;15.956;2023-02-07T05:14:06;15.40;;;6.10;;
67986;SDS011;54767;53.800;15.956;2023-02-07T05:16:35;13.10;;;5.30;;
67986;SDS011;54767;53.800;15.956;2023-02-07T05:19:03;11.20;;;5.60;;
67986;SDS011;54767;53.800;15.956;2023-02-07T05:21:31;12.50;;;5.60;;
67986;SDS011;54767;53.800;15.956;2023-02-07T05:24:00;12.70;;;5.60;;
67986;SDS011;54767;53.800;15.956;2023-02-07T05:26:28;11.60;;;5.60;;
67986;SDS011;54767;53.800;15.956;2023-02-07T05:28:56;14.60;;;6.20;;
67986;SDS011;54767;53.800;15.956;2023-02-07T05:31:25;11.90;;;5.90;;
67986;SDS011;54767;53.800;15.956;2023-02-07T05:34:13;13.50;;;6.10;;
67986;SDS011;54767;53.800;15.956;2023-02-07T05:36:41;14.70;;;7.20;;
67986;SDS011;54767;53.800;15.956;2023-02-07T05:39:10;14.20;;;6.90;;
67986;SDS011;54767;53.800;15.956;2023-02-07T05:41:38;15.20;;;7.10;;
67986;SDS011;54767;53.800;15.956;2023-02-07T05:44:06;13.90;;;6.90;;
67986;SDS011;54767;53.800;15.956;2023-02-07T05:46:34;14.40;;;6.80;;
67986;SDS011;54767;53.800;15.956;2023-02-07T05:49:03;17.10;;;8.10;;
67986;SDS011;54767;53.800;15.956;2023-02-07T05:51:31;14.60;;;7.50;;
67986;SDS011;54767;53.800;15.956;2023-02-07T05:53:59;16.50;;;8.10;;
67986;SDS011;54767;53.800;15.956;2023-02-07T05:56:27;15.40;;;8.00;;
67986;SDS011;54767;53.800;15.956;2023-02-07T05:58:56;16.80;;;8.50;;
67986;SDS011;54767;53.800;15.956;2023-02-07T06:01:24;18.60;;;8.60;;
67986;SDS011;54767;53.800;15.956;2023-02-07T06:03:52;19.00;;;9.70;;
67986;SDS011;54767;53.800;15.956;2023-02-07T06:06:21;19.70;;;9.40;;
67986;SDS011;54767;53.800;15.956;2023-02-07T06:08:49;19.40;;;9.00;;
67986;SDS011;54767;53.800;15.956;2023-02-07T06:11:17;16.70;;;8.90;;
67986;SDS011;54767;53.800;15.956;2023-02-07T06:13:45;19.60;;;8.90;;
67986;SDS011;54767;53.800;15.956;2023-02-07T06:16:14;17.40;;;8.80;;
67986;SDS011;54767;53.800;15.956;2023-02-07T06:18:42;15.90;;;7.80;;
67986;SDS011;54767;53.800;15.956;2023-02-07T06:21:10;16.90;;;7.40;;
67986;SDS011;54767;53.800;15.956;2023-02-07T06:23:39;16.10;;;7.30;;
67986;SDS011;54767;53.800;15.956;2023-02-07T06:26:07;14.90;;;7.30;;
67986;SDS011;54767;53.800;15.956;2023-02-07T06:28:35;13.30;;;6.50;;
67986;SDS011;54767;53.800;15.956;2023-02-07T06:31:04;13.40;;;6.80;;
67986;SDS011;54767;53.800;15.956;2023-02-07T06:33:32;15.00;;;6.70;;
67986;SDS011;54767;53.800;15.956;2023-02-07T06:36:00;12.40;;;6.30;;
67986;SDS011;54767;53.800;15.956;2023-02-07T06:38:29;10.70;;;6.00;;
67986;SDS011;54767;53.800;15.956;2023-02-07T06:40:58;10.40;;;5.50;;
67986;SDS011;54767;53.800;15.956;2023-02-07T06:43:26;11.70;;;5.50;;
67986;SDS011;54767;53.800;15.956;2023-02-07T06:45:54;11.70;;;5.60;;
67986;SDS011;54767;53.800;15.956;2023-02-07T06:48:23;9.80;;;5.40;;
67986;SDS011;54767;53.800;15.956;2023-02-07T06:50:51;12.00;;;5.50;;
67986;SDS011;54767;53.800;15.956;2023-02-07T06:53:19;10.50;;;5.50;;
67986;SDS011;54767;53.800;15.956;2023-02-07T06:55:48;12.70;;;5.90;;
67986;SDS011;54767;53.800;15.956;2023-02-07T06:58:16;10.90;;;5.50;;
67986;SDS011;54767;53.800;15.956;2023-02-07T07:00:44;11.10;;;5.70;;
67986;SDS011;54767;53.800;15.956;2023-02-07T07:03:13;12.20;;;6.40;;
67986;SDS011;54767;53.800;15.956;2023-02-07T07:05:43;11.80;;;6.20;;
67986;SDS011;54767;53.800;15.956;2023-02-07T07:08:12;11.40;;;5.70;;
67986;SDS011;54767;53.800;15.956;2023-02-07T07:10:45;12.00;;;6.20;;
67986;SDS011;54767;53.800;15.956;2023-02-07T07:13:13;10.90;;;5.60;;
67986;SDS011;54767;53.800;15.956;2023-02-07T07:15:42;12.80;;;6.10;;
67986;SDS011;54767;53.800;15.956;2023-02-07T07:18:10;14.90;;;6.70;;
67986;SDS011;54767;53.800;15.956;2023-02-07T07:20:38;14.20;;;6.20;;
67986;SDS011;54767;53.800;15.956;2023-02-07T07:23:07;11.90;;;6.30;;
67986;SDS011;54767;53.800;15.956;2023-02-07T07:25:35;11.80;;;6.30;;
67986;SDS011;54767;53.800;15.956;2023-02-07T07:28:04;11.00;;;5.70;;
67986;SDS011;54767;53.800;15.956;2023-02-07T07:30:32;11.80;;;5.70;;
67986;SDS011;54767;53.800;15.956;2023-02-07T07:33:00;10.50;;;5.30;;
67986;SDS011;54767;53.800;15.956;2023-02-07T07:35:29;10.10;;;5.40;;
67986;SDS011;54767;53.800;15.956;2023-02-07T07:37:57;14.80;;;6.10;;
67986;SDS011;54767;53.800;15.956;2023-02-07T07:40:26;13.10;;;5.60;;
67986;SDS011;54767;53.800;15.956;2023-02-07T07:42:54;9.70;;;5.40;;
67986;SDS011;54767;53.800;15.956;2023-02-07T07:45:22;10.30;;;5.30;;
67986;SDS011;54767;53.800;15.956;2023-02-07T07:47:51;9.70;;;4.70;;
67986;SDS011;54767;53.800;15.956;2023-02-07T07:50:19;10.90;;;5.80;;
67986;SDS011;54767;53.800;15.956;2023-02-07T07:52:47;13.20;;;5.80;;
67986;SDS011;54767;53.800;15.956;2023-02-07T07:55:16;11.10;;;5.70;;
67986;SDS011;54767;53.800;15.956;2023-02-07T07:57:44;17.10;;;8.00;;
67986;SDS011;54767;53.800;15.956;2023-02-07T08:00:13;15.30;;;7.40;;
67986;SDS011;54767;53.800;15.956;2023-02-07T08:02:42;11.80;;;6.30;;
67986;SDS011;54767;53.800;15.956;2023-02-07T08:05:10;10.50;;;5.30;;
67986;SDS011;54767;53.800;15.956;2023-02-07T08:07:40;22.20;;;12.10;;
67986;SDS011;54767;53.800;15.956;2023-02-07T08:10:09;33.80;;;19.10;;
67986;SDS011;54767;53.800;15.956;2023-02-07T08:12:37;22.70;;;12.80;;
67986;SDS011;54767;53.800;15.956;2023-02-07T08:15:05;23.40;;;14.50;;
67986;SDS011;54767;53.800;15.956;2023-02-07T08:17:36;20.20;;;11.70;;
67986;SDS011;54767;53.800;15.956;2023-02-07T08:20:05;16.60;;;8.00;;
67986;SDS011;54767;53.800;15.956;2023-02-07T08:22:33;29.10;;;14.40;;
67986;SDS011;54767;53.800;15.956;2023-02-07T08:25:02;41.40;;;20.30;;
67986;SDS011;54767;53.800;15.956;2023-02-07T08:27:30;39.90;;;18.10;;
67986;SDS011;54767;53.800;15.956;2023-02-07T08:30:01;24.60;;;13.00;;
67986;SDS011;54767;53.800;15.956;2023-02-07T08:32:29;21.30;;;11.10;;
67986;SDS011;54767;53.800;15.956;2023-02-07T08:34:57;15.80;;;8.20;;
67986;SDS011;54767;53.800;15.956;2023-02-07T08:37:25;13.90;;;7.20;;
67986;SDS011;54767;53.800;15.956;2023-02-07T08:39:54;9.40;;;5.30;;
67986;SDS011;54767;53.800;15.956;2023-02-07T08:42:23;14.90;;;8.50;;
67986;SDS011;54767;53.800;15.956;2023-02-07T08:44:51;10.80;;;5.10;;
67986;SDS011;54767;53.800;15.956;2023-02-07T08:47:19;8.20;;;4.80;;
67986;SDS011;54767;53.800;15.956;2023-02-07T08:49:48;8.30;;;4.60;;
67986;SDS011;54767;53.800;15.956;2023-02-07T08:52:16;8.30;;;4.30;;
67986;SDS011;54767;53.800;15.956;2023-02-07T08:54:44;7.80;;;4.80;;
67986;SDS011;54767;53.800;15.956;2023-02-07T08:57:12;7.30;;;4.30;;
67986;SDS011;54767;53.800;15.956;2023-02-07T08:59:41;7.70;;;4.50;;
67986;SDS011;54767;53.800;15.956;2023-02-07T09:02:10;8.90;;;4.40;;
67986;SDS011;54767;53.800;15.956;2023-02-07T09:04:39;9.50;;;4.10;;
67986;SDS011;54767;53.800;15.956;2023-02-07T09:07:10;6.90;;;4.00;;
67986;SDS011;54767;53.800;15.956;2023-02-07T09:09:38;5.60;;;3.60;;
67986;SDS011;54767;53.800;15.956;2023-02-07T09:12:07;8.90;;;4.50;;
67986;SDS011;54767;53.800;15.956;2023-02-07T09:14:37;7.10;;;3.90;;
67986;SDS011;54767;53.800;15.956;2023-02-07T09:17:06;10.40;;;4.90;;
67986;SDS011;54767;53.800;15.956;2023-02-07T09:19:36;6.50;;;4.30;;
67986;SDS011;54767;53.800;15.956;2023-02-07T09:22:04;6.30;;;4.30;;
67986;SDS011;54767;53.800;15.956;2023-02-07T09:24:32;7.10;;;4.00;;
67986;SDS011;54767;53.800;15.956;2023-02-07T09:27:01;8.10;;;4.70;;
67986;SDS011;54767;53.800;15.956;2023-02-07T09:29:29;7.00;;;4.50;;
67986;SDS011;54767;53.800;15.956;2023-02-07T09:31:58;8.60;;;4.50;;
67986;SDS011;54767;53.800;15.956;2023-02-07T09:34:26;5.30;;;4.00;;
67986;SDS011;54767;53.800;15.956;2023-02-07T09:36:54;7.40;;;4.00;;
67986;SDS011;54767;53.800;15.956;2023-02-07T09:39:23;6.30;;;4.20;;
67986;SDS011;54767;53.800;15.956;2023-02-07T09:47:19;8.40;;;4.50;;
67986;SDS011;54767;53.800;15.956;2023-02-07T09:49:57;6.90;;;3.80;;
67986;SDS011;54767;53.800;15.956;2023-02-07T09:52:41;6.60;;;3.90;;
67986;SDS011;54767;53.800;15.956;2023-02-07T09:55:20;8.20;;;4.20;;
67986;SDS011;54767;53.800;15.956;2023-02-07T10:00:27;8.60;;;4.20;;
67986;SDS011;54767;53.800;15.956;2023-02-07T10:05:58;6.20;;;3.90;;
67986;SDS011;54767;53.800;15.956;2023-02-07T10:08:45;6.80;;;3.80;;
67986;SDS011;54767;53.800;15.956;2023-02-07T10:19:21;5.10;;;3.50;;
67986;SDS011;54767;53.800;15.956;2023-02-07T10:30:16;5.80;;;3.90;;
67986;SDS011;54767;53.800;15.956;2023-02-07T10:32:51;6.50;;;3.80;;
67986;SDS011;54767;53.800;15.956;2023-02-07T10:35:23;6.30;;;3.40;;
67986;SDS011;54767;53.800;15.956;2023-02-07T10:37:59;6.10;;;3.70;;
67986;SDS011;54767;53.800;15.956;2023-02-07T10:40:34;6.80;;;4.00;;
67986;SDS011;54767;53.800;15.956;2023-02-07T10:43:14;7.00;;;3.90;;
67986;SDS011;54767;53.800;15.956;2023-02-07T10:45:57;6.50;;;3.90;;
67986;SDS011;54767;53.800;15.956;2023-02-07T10:48:34;6.50;;;4.30;;
67986;SDS011;54767;53.800;15.956;2023-02-07T10:51:05;6.00;;;4.10;;
67986;SDS011;54767;53.800;15.956;2023-02-07T10:53:42;5.90;;;3.80;;
67986;SDS011;54767;53.800;15.956;2023-02-07T10:56:23;6.10;;;3.80;;
67986;SDS011;54767;53.800;15.956;2023-02-07T10:58:58;8.80;;;4.30;;
67986;SDS011;54767;53.800;15.956;2023-02-07T11:01:27;8.20;;;4.10;;
67986;SDS011;54767;53.800;15.956;2023-02-07T11:03:59;9.40;;;4.20;;
67986;SDS011;54767;53.800;15.956;2023-02-07T11:09:18;5.70;;;4.10;;
67986;SDS011;54767;53.800;15.956;2023-02-07T11:11:50;9.20;;;4.00;;
67986;SDS011;54767;53.800;15.956;2023-02-07T11:14:20;7.30;;;4.10;;
67986;SDS011;54767;53.800;15.956;2023-02-07T11:16:58;9.00;;;4.70;;
67986;SDS011;54767;53.800;15.956;2023-02-07T11:19:28;5.70;;;4.10;;
67986;SDS011;54767;53.800;15.956;2023-02-07T11:22:16;4.80;;;3.70;;
67986;SDS011;54767;53.800;15.956;2023-02-07T11:24:47;7.10;;;4.10;;
67986;SDS011;54767;53.800;15.956;2023-02-07T11:27:20;6.60;;;4.10;;
67986;SDS011;54767;53.800;15.956;2023-02-07T11:29:57;6.90;;;4.20;;
67986;SDS011;54767;53.800;15.956;2023-02-07T11:32:31;6.90;;;4.10;;
67986;SDS011;54767;53.800;15.956;2023-02-07T11:34:59;7.30;;;4.10;;
67986;SDS011;54767;53.800;15.956;2023-02-07T11:37:39;7.00;;;4.10;;
67986;SDS011;54767;53.800;15.956;2023-02-07T11:40:27;8.60;;;5.10;;
67986;SDS011;54767;53.800;15.956;2023-02-07T11:43:16;9.70;;;4.50;;
67986;SDS011;54767;53.800;15.956;2023-02-07T11:45:50;7.30;;;4.60;;
67986;SDS011;54767;53.800;15.956;2023-02-07T11:48:45;10.10;;;4.70;;
67986;SDS011;54767;53.800;15.956;2023-02-07T11:51:16;9.70;;;4.80;;
67986;SDS011;54767;53.800;15.956;2023-02-07T11:53:47;7.80;;;5.30;;
67986;SDS011;54767;53.800;15.956;2023-02-07T11:56:22;7.60;;;4.60;;
67986;SDS011;54767;53.800;15.956;2023-02-07T11:58:57;7.10;;;4.90;;
67986;SDS011;54767;53.800;15.956;2023-02-07T12:01:27;7.80;;;4.50;;
67986;SDS011;54767;53.800;15.956;2023-02-07T12:04:00;7.80;;;4.90;;
67986;SDS011;54767;53.800;15.956;2023-02-07T12:06:46;6.90;;;4.70;;
67986;SDS011;54767;53.800;15.956;2023-02-07T12:12:19;7.90;;;4.90;;
67986;SDS011;54767;53.800;15.956;2023-02-07T12:14:59;10.70;;;6.20;;
67986;SDS011;54767;53.800;15.956;2023-02-07T12:17:42;10.90;;;6.20;;
67986;SDS011;54767;53.800;15.956;2023-02-07T12:23:36;7.80;;;5.50;;
67986;SDS011;54767;53.800;15.956;2023-02-07T12:26:15;8.50;;;5.30;;
67986;SDS011;54767;53.800;15.956;2023-02-07T12:37:52;9.30;;;5.70;;
67986;SDS011;54767;53.800;15.956;2023-02-07T12:40:52;8.60;;;5.70;;
67986;SDS011;54767;53.800;15.956;2023-02-07T12:43:27;8.20;;;5.30;;
67986;SDS011;54767;53.800;15.956;2023-02-07T12:46:17;9.90;;;5.90;;
67986;SDS011;54767;53.800;15.956;2023-02-07T12:51:58;10.50;;;5.70;;
67986;SDS011;54767;53.800;15.956;2023-02-07T12:57:23;12.70;;;6.80;;
67986;SDS011;54767;53.800;15.956;2023-02-07T13:13:54;17.00;;;8.30;;
67986;SDS011;54767;53.800;15.956;2023-02-07T13:19:05;15.50;;;7.50;;
67986;SDS011;54767;53.800;15.956;2023-02-07T13:24:12;15.70;;;7.70;;
67986;SDS011;54767;53.800;15.956;2023-02-07T13:26:46;17.80;;;8.90;;
67986;SDS011;54767;53.800;15.956;2023-02-07T13:29:18;16.10;;;8.80;;
67986;SDS011;54767;53.800;15.956;2023-02-07T13:31:56;19.60;;;9.60;;
67986;SDS011;54767;53.800;15.956;2023-02-07T13:34:39;19.20;;;9.40;;
67986;SDS011;54767;53.800;15.956;2023-02-07T13:37:12;19.30;;;9.30;;
67986;SDS011;54767;53.800;15.956;2023-02-07T13:39:52;21.10;;;9.80;;
67986;SDS011;54767;53.800;15.956;2023-02-07T13:42:37;18.30;;;10.00;;
67986;SDS011;54767;53.800;15.956;2023-02-07T13:51:14;22.70;;;11.40;;
67986;SDS011;54767;53.800;15.956;2023-02-07T13:56:31;20.20;;;11.10;;
67986;SDS011;54767;53.800;15.956;2023-02-07T14:02:48;24.00;;;11.80;;
67986;SDS011;54767;53.800;15.956;2023-02-07T14:05:21;23.20;;;11.50;;
67986;SDS011;54767;53.800;15.956;2023-02-07T14:08:05;24.20;;;11.90;;
67986;SDS011;54767;53.800;15.956;2023-02-07T14:10:49;23.80;;;12.20;;
67986;SDS011;54767;53.800;15.956;2023-02-07T14:26:50;30.40;;;15.40;;
67986;SDS011;54767;53.800;15.956;2023-02-07T14:35:36;22.20;;;12.30;;
67986;SDS011;54767;53.800;15.956;2023-02-07T14:45:44;27.90;;;15.70;;
67986;SDS011;54767;53.800;15.956;2023-02-07T14:51:10;23.30;;;12.60;;
67986;SDS011;54767;53.800;15.956;2023-02-07T14:53:42;24.70;;;12.50;;
67986;SDS011;54767;53.800;15.956;2023-02-07T14:56:23;20.60;;;11.70;;
67986;SDS011;54767;53.800;15.956;2023-02-07T14:59:13;24.20;;;12.00;;
67986;SDS011;54767;53.800;15.956;2023-02-07T15:01:48;22.80;;;11.00;;
67986;SDS011;54767;53.800;15.956;2023-02-07T15:04:17;22.10;;;10.70;;
67986;SDS011;54767;53.800;15.956;2023-02-07T15:06:45;24.00;;;11.70;;
67986;SDS011;54767;53.800;15.956;2023-02-07T15:09:23;22.00;;;11.80;;
67986;SDS011;54767;53.800;15.956;2023-02-07T15:11:58;22.00;;;12.20;;
67986;SDS011;54767;53.800;15.956;2023-02-07T15:14:50;22.10;;;11.20;;
67986;SDS011;54767;53.800;15.956;2023-02-07T15:17:21;21.10;;;11.10;;
67986;SDS011;54767;53.800;15.956;2023-02-07T15:20:06;22.70;;;11.10;;
67986;SDS011;54767;53.800;15.956;2023-02-07T15:22:40;21.10;;;10.00;;
67986;SDS011;54767;53.800;15.956;2023-02-07T15:25:11;21.70;;;11.00;;
67986;SDS011;54767;53.800;15.956;2023-02-07T15:27:41;23.80;;;11.30;;
67986;SDS011;54767;53.800;15.956;2023-02-07T15:30:16;19.70;;;10.00;;
67986;SDS011;54767;53.800;15.956;2023-02-07T15:32:47;23.40;;;10.90;;
67986;SDS011;54767;53.800;15.956;2023-02-07T15:35:20;22.90;;;11.00;;
67986;SDS011;54767;53.800;15.956;2023-02-07T15:37:54;22.70;;;10.70;;
67986;SDS011;54767;53.800;15.956;2023-02-07T15:40:41;22.50;;;10.90;;
67986;SDS011;54767;53.800;15.956;2023-02-07T15:43:21;24.80;;;12.90;;
67986;SDS011;54767;53.800;15.956;2023-02-07T15:46:05;23.60;;;11.60;;
67986;SDS011;54767;53.800;15.956;2023-02-07T15:51:18;20.90;;;9.80;;
67986;SDS011;54767;53.800;15.956;2023-02-07T15:53:59;22.20;;;10.20;;
67986;SDS011;54767;53.800;15.956;2023-02-07T15:56:28;22.10;;;10.60;;
67986;SDS011;54767;53.800;15.956;2023-02-07T15:59:07;21.90;;;10.60;;
67986;SDS011;54767;53.800;15.956;2023-02-07T16:01:37;18.70;;;10.10;;
67986;SDS011;54767;53.800;15.956;2023-02-07T16:04:08;22.80;;;10.50;;
67986;SDS011;54767;53.800;15.956;2023-02-07T16:06:36;23.70;;;11.40;;
67986;SDS011;54767;53.800;15.956;2023-02-07T16:09:04;24.30;;;11.90;;
67986;SDS011;54767;53.800;15.956;2023-02-07T16:11:37;20.50;;;10.70;;
67986;SDS011;54767;53.800;15.956;2023-02-07T16:19:23;24.50;;;11.90;;
67986;SDS011;54767;53.800;15.956;2023-02-07T16:22:07;28.90;;;14.20;;
67986;SDS011;54767;53.800;15.956;2023-02-07T16:24:41;34.70;;;16.30;;
67986;SDS011;54767;53.800;15.956;2023-02-07T16:27:22;31.40;;;15.80;;
67986;SDS011;54767;53.800;15.956;2023-02-07T16:29:57;31.20;;;15.80;;
67986;SDS011;54767;53.800;15.956;2023-02-07T16:32:27;30.90;;;14.90;;
67986;SDS011;54767;53.800;15.956;2023-02-07T16:35:00;25.40;;;12.40;;
67986;SDS011;54767;53.800;15.956;2023-02-07T16:37:28;24.40;;;12.80;;
67986;SDS011;54767;53.800;15.956;2023-02-07T16:39:56;29.20;;;14.60;;
67986;SDS011;54767;53.800;15.956;2023-02-07T16:42:24;33.20;;;15.70;;
67986;SDS011;54767;53.800;15.956;2023-02-07T16:44:53;33.10;;;16.50;;
67986;SDS011;54767;53.800;15.956;2023-02-07T16:47:21;31.70;;;15.30;;
67986;SDS011;54767;53.800;15.956;2023-02-07T16:49:50;30.60;;;16.00;;
67986;SDS011;54767;53.800;15.956;2023-02-07T16:52:19;31.80;;;16.10;;
67986;SDS011;54767;53.800;15.956;2023-02-07T16:54:47;33.90;;;16.60;;
67986;SDS011;54767;53.800;15.956;2023-02-07T16:57:15;37.20;;;18.60;;
67986;SDS011;54767;53.800;15.956;2023-02-07T16:59:44;40.60;;;20.00;;
67986;SDS011;54767;53.800;15.956;2023-02-07T17:02:13;46.50;;;22.00;;
67986;SDS011;54767;53.800;15.956;2023-02-07T17:04:43;48.80;;;23.50;;
67986;SDS011;54767;53.800;15.956;2023-02-07T17:07:12;48.60;;;21.40;;
67986;SDS011;54767;53.800;15.956;2023-02-07T17:09:40;45.80;;;20.60;;
67986;SDS011;54767;53.800;15.956;2023-02-07T17:12:09;51.70;;;23.60;;
67986;SDS011;54767;53.800;15.956;2023-02-07T17:14:41;60.10;;;27.70;;
67986;SDS011;54767;53.800;15.956;2023-02-07T17:17:10;66.40;;;30.40;;
67986;SDS011;54767;53.800;15.956;2023-02-07T17:19:39;72.30;;;32.10;;
67986;SDS011;54767;53.800;15.956;2023-02-07T17:22:07;73.90;;;32.00;;
67986;SDS011;54767;53.800;15.956;2023-02-07T17:24:35;73.60;;;33.20;;
67986;SDS011;54767;53.800;15.956;2023-02-07T17:27:04;72.50;;;33.80;;
67986;SDS011;54767;53.800;15.956;2023-02-07T17:29:32;77.80;;;33.80;;
67986;SDS011;54767;53.800;15.956;2023-02-07T17:32:00;75.70;;;34.00;;
67986;SDS011;54767;53.800;15.956;2023-02-07T17:34:28;60.50;;;30.90;;